createdAt,value
2019-04-06T00:00:24.601Z,19.07
2019-04-06T00:03:29.108Z,18.67
2019-04-06T00:06:33.859Z,16.60
2019-04-06T00:09:38.292Z,18.53
2019-04-06T00:12:42.725Z,18.23
2019-04-06T00:15:47.437Z,17.47
2019-04-06T00:18:52.161Z,16.03
2019-04-06T00:21:56.602Z,16.77
2019-04-06T00:25:01.319Z,16.97
2019-04-06T00:28:06.055Z,20.97
2019-04-06T00:31:12.120Z,16.73
2019-04-06T00:34:16.562Z,16.30
2019-04-06T00:37:21.004Z,18.87
2019-04-06T00:40:25.709Z,16.27
2019-04-06T00:43:30.150Z,16.67
2019-04-06T00:46:34.586Z,16.30
2019-04-06T00:49:39.021Z,17.53
2019-04-06T00:52:43.462Z,18.37
2019-04-06T00:55:55.660Z,16.80
2019-04-06T00:58:54.381Z,16.70
2019-04-06T01:01:58.871Z,28.27
2019-04-06T01:05:03.795Z,19.70
2019-04-06T01:08:08.672Z,18.90
2019-04-06T01:11:13.099Z,16.87
2019-04-06T01:14:17.545Z,21.37
2019-04-06T01:17:22.701Z,17.53
2019-04-06T01:20:27.393Z,17.93
2019-04-06T01:23:31.835Z,19.07
2019-04-06T01:26:36.544Z,17.83
2019-04-06T01:29:41.270Z,19.30
2019-04-06T01:32:45.716Z,20.27
2019-04-06T01:35:50.431Z,20.47
2019-04-06T01:38:54.869Z,22.50
2019-04-06T01:41:59.309Z,19.20
2019-04-06T01:45:04.925Z,15.57
2019-04-06T01:48:09.372Z,19.40
2019-04-06T01:51:13.809Z,21.17
2019-04-06T01:54:18.314Z,21.47
2019-04-06T01:57:23.107Z,16.27
2019-04-06T02:00:27.867Z,16.53
2019-04-06T02:03:32.595Z,18.50
2019-04-06T02:06:37.328Z,19.00
2019-04-06T02:09:42.057Z,18.53
2019-04-06T02:12:46.499Z,19.67
2019-04-06T02:15:50.980Z,19.93
2019-04-06T02:18:55.374Z,18.23
2019-04-06T02:21:59.808Z,19.53
2019-04-06T02:25:05.385Z,19.93
2019-04-06T02:28:09.831Z,17.80
2019-04-06T02:31:15.906Z,20.07
2019-04-06T02:34:27.829Z,22.73
2019-04-06T02:37:33.903Z,20.93
2019-04-06T02:40:39.984Z,21.37
2019-04-06T02:43:44.749Z,21.53
2019-04-06T02:46:49.195Z,20.97
2019-04-06T02:49:53.617Z,20.80
2019-04-06T02:52:58.046Z,20.10
2019-04-06T02:56:02.753Z,18.20
2019-04-06T02:59:07.485Z,16.97
2019-04-06T03:02:11.916Z,19.47
2019-04-06T03:05:16.636Z,21.07
2019-04-06T03:08:21.069Z,19.77
2019-04-06T03:11:25.516Z,21.77
2019-04-06T03:14:29.954Z,20.23
2019-04-06T03:17:34.392Z,20.70
2019-04-06T03:20:39.172Z,20.77
2019-04-06T03:23:51.364Z,20.57
2019-04-06T03:27:00.657Z,22.93
2019-04-06T03:29:58.618Z,22.97
2019-04-06T03:33:02.721Z,21.53
2019-04-06T03:36:07.545Z,21.10
2019-04-06T03:39:12.033Z,23.07
2019-04-06T03:42:16.480Z,19.80
2019-04-06T03:45:20.917Z,24.53
2019-04-06T03:48:25.827Z,22.33
2019-04-06T03:51:30.281Z,23.07
2019-04-06T03:54:35.090Z,20.93
2019-04-06T03:57:39.820Z,21.30
2019-04-06T04:00:45.101Z,19.30
2019-04-06T04:03:49.603Z,22.20
2019-04-06T04:06:54.046Z,21.87
2019-04-06T04:09:58.494Z,20.73
2019-04-06T04:13:02.923Z,19.07
2019-04-06T04:16:07.695Z,22.17
2019-04-06T04:19:12.123Z,19.83
2019-04-06T04:22:17.049Z,25.37
2019-04-06T04:25:21.890Z,23.70
2019-04-06T04:28:26.344Z,22.00
2019-04-06T04:31:30.765Z,21.00
2019-04-06T04:34:35.469Z,21.47
2019-04-06T04:37:39.918Z,22.47
2019-04-06T04:40:44.383Z,20.83
2019-04-06T04:43:49.160Z,20.90
2019-04-06T04:46:53.581Z,18.87
2019-04-06T04:49:58.313Z,20.03
2019-04-06T04:53:02.732Z,21.03
2019-04-06T04:56:07.534Z,25.23
2019-04-06T04:59:12.011Z,19.77
2019-04-06T05:02:16.712Z,17.87
2019-04-06T05:05:21.172Z,22.27
2019-04-06T05:08:25.621Z,23.33
2019-04-06T05:11:30.045Z,20.37
2019-04-06T05:15:04.562Z,23.23
2019-04-06T05:18:09.819Z,18.27
2019-04-06T05:21:14.335Z,21.47
2019-04-06T05:24:18.763Z,23.83
2019-04-06T05:27:23.846Z,26.40
2019-04-06T05:30:28.282Z,20.20
2019-04-06T05:33:32.995Z,25.13
2019-04-06T05:36:37.733Z,19.10
2019-04-06T05:39:42.160Z,26.33
2019-04-06T05:42:46.763Z,21.33
2019-04-06T05:45:51.231Z,22.90
2019-04-06T05:48:55.673Z,26.20
2019-04-06T05:52:00.462Z,22.33
2019-04-06T05:55:06.429Z,26.43
2019-04-06T05:58:11.142Z,31.17
2019-04-06T06:01:15.818Z,32.60
2019-04-06T06:04:20.249Z,31.10
2019-04-06T06:07:24.686Z,33.77
2019-04-06T06:10:29.122Z,33.27
2019-04-06T06:13:33.562Z,35.03
2019-04-06T06:16:38.313Z,40.07
2019-04-06T06:19:42.740Z,33.23
2019-04-06T06:22:47.187Z,34.40
2019-04-06T06:25:51.620Z,33.77
2019-04-06T06:28:56.303Z,33.03
2019-04-06T06:32:01.036Z,33.37
2019-04-06T06:35:07.567Z,29.77
2019-04-06T06:38:12.340Z,38.77
2019-04-06T06:41:17.068Z,28.40
2019-04-06T06:44:21.506Z,26.70
2019-04-06T06:47:25.956Z,26.90
2019-04-06T06:50:30.398Z,27.40
2019-04-06T06:53:34.850Z,26.83
2019-04-06T06:56:39.313Z,32.13
2019-04-06T06:59:43.752Z,28.73
2019-04-06T07:02:48.204Z,29.87
2019-04-06T07:05:52.638Z,35.03
2019-04-06T07:08:57.393Z,34.13
2019-04-06T07:12:01.988Z,34.53
2019-04-06T07:15:09.211Z,33.63
2019-04-06T07:18:14.123Z,36.17
2019-04-06T07:21:18.649Z,39.93
2019-04-06T07:24:23.087Z,47.17
2019-04-06T07:27:27.528Z,41.23
2019-04-06T07:30:32.269Z,41.93
2019-04-06T07:33:36.755Z,39.67
2019-04-06T07:36:41.136Z,43.83
2019-04-06T07:39:45.689Z,42.73
2019-04-06T07:42:50.105Z,37.00
2019-04-06T07:45:54.536Z,44.83
2019-04-06T07:49:07.919Z,45.37
2019-04-06T07:52:05.683Z,42.47
2019-04-06T07:55:10.546Z,38.37
2019-04-06T07:58:15.441Z,42.77
2019-04-06T08:01:19.877Z,40.43
2019-04-06T08:04:24.331Z,39.33
2019-04-06T08:07:29.007Z,41.73
2019-04-06T08:10:33.711Z,44.27
2019-04-06T08:13:38.269Z,41.77
2019-04-06T08:16:42.727Z,42.30
2019-04-06T08:19:47.339Z,39.80
2019-04-06T08:22:51.793Z,45.20
2019-04-06T08:25:56.421Z,43.40
2019-04-06T08:29:02.377Z,43.70
2019-04-06T08:32:07.296Z,47.43
2019-04-06T08:35:23.941Z,46.07
2019-04-06T08:38:19.394Z,41.13
2019-04-06T08:41:23.830Z,44.23
2019-04-06T08:44:28.277Z,42.03
2019-04-06T08:47:32.975Z,47.13
2019-04-06T08:50:37.422Z,44.77
2019-04-06T08:53:42.009Z,44.93
2019-04-06T08:56:46.577Z,48.60
2019-04-06T08:59:51.071Z,47.20
2019-04-06T09:02:55.735Z,49.10
2019-04-06T09:06:00.188Z,46.90
2019-04-06T09:09:07.417Z,46.10
2019-04-06T09:12:12.153Z,45.03
2019-04-06T09:15:18.539Z,46.63
2019-04-06T09:18:23.254Z,44.00
2019-04-06T09:21:27.693Z,46.90
2019-04-06T09:24:32.257Z,45.37
2019-04-06T09:27:36.974Z,46.87
2019-04-06T09:30:41.711Z,46.40
2019-04-06T09:33:46.120Z,48.50
2019-04-06T09:36:50.768Z,48.70
2019-04-06T09:39:55.292Z,45.73
2019-04-06T09:43:00.081Z,49.30
2019-04-06T09:46:04.602Z,46.07
2019-04-06T09:49:10.707Z,54.53
2019-04-06T09:52:17.620Z,47.97
2019-04-06T09:55:29.685Z,46.03
2019-04-06T09:58:52.112Z,44.53
2019-04-06T10:02:14.061Z,47.07
2019-04-06T10:05:22.894Z,42.97
2019-04-06T10:08:43.746Z,47.90
2019-04-06T10:11:55.832Z,49.00
2019-04-06T10:15:14.015Z,40.53
2019-04-06T10:18:22.850Z,38.83
2019-04-06T10:21:34.660Z,47.13
2019-04-06T10:24:40.816Z,45.03
2019-04-06T10:27:47.175Z,46.53
2019-04-06T10:31:03.411Z,44.47
2019-04-06T10:34:09.475Z,39.43
2019-04-06T10:37:28.449Z,40.53
2019-04-06T10:40:40.853Z,40.40
2019-04-06T10:43:48.064Z,35.20
2019-04-06T10:47:02.888Z,34.73
2019-04-06T10:50:18.049Z,34.67
2019-04-06T10:53:30.495Z,36.57
2019-04-06T10:56:43.302Z,40.33
2019-04-06T11:00:01.035Z,37.07
2019-04-06T11:03:00.520Z,38.60
2019-04-06T11:06:22.964Z,37.20
2019-04-06T11:09:34.901Z,35.10
2019-04-06T11:12:44.833Z,37.93
2019-04-06T11:16:06.789Z,34.40
2019-04-06T11:19:30.851Z,32.10
2019-04-06T11:22:52.983Z,33.43
2019-04-06T11:25:59.968Z,32.93
2019-04-06T11:29:07.358Z,32.50
2019-04-06T11:32:29.513Z,29.73
2019-04-06T11:35:47.738Z,33.33
2019-04-06T11:38:54.102Z,32.60
2019-04-06T11:42:02.594Z,26.13
2019-04-06T11:45:16.158Z,21.13
2019-04-06T11:48:37.470Z,23.77
2019-04-06T11:51:46.642Z,19.47
2019-04-06T11:54:52.870Z,18.80
2019-04-06T11:58:10.847Z,22.60
2019-04-06T12:01:23.103Z,18.20
2019-04-06T12:04:41.034Z,18.70
2019-04-06T12:07:53.328Z,20.07
2019-04-06T12:11:02.229Z,19.93
2019-04-06T12:14:24.169Z,23.90
2019-04-06T12:17:39.378Z,20.67
2019-04-06T12:20:58.622Z,20.97
2019-04-06T12:24:07.203Z,20.20
2019-04-06T12:27:16.002Z,19.80
2019-04-06T12:30:36.595Z,19.17
2019-04-06T12:33:42.159Z,19.30
2019-04-06T12:37:03.570Z,20.53
2019-04-06T12:40:10.277Z,20.27
2019-04-06T12:43:19.128Z,18.43
2019-04-06T12:46:39.991Z,19.77
2019-04-06T12:49:53.178Z,17.63
2019-04-06T12:53:02.496Z,19.70
2019-04-06T12:56:20.742Z,20.43
2019-04-06T12:59:29.525Z,20.03
2019-04-06T13:02:36.784Z,18.43
2019-04-06T13:06:01.050Z,20.03
2019-04-06T13:09:24.862Z,19.07
2019-04-06T13:12:48.663Z,17.53
2019-04-06T13:16:01.007Z,18.43
2019-04-06T13:19:07.098Z,16.33
2019-04-06T13:22:29.330Z,16.87
2019-04-06T13:25:41.426Z,18.00
2019-04-06T13:28:50.312Z,16.17
2019-04-06T13:32:02.878Z,15.93
2019-04-06T13:35:24.240Z,16.57
2019-04-06T13:38:31.298Z,15.27
2019-04-06T13:41:53.219Z,13.93
2019-04-06T13:45:08.476Z,12.50
2019-04-06T13:48:31.201Z,13.33
2019-04-06T13:51:40.442Z,14.03
2019-04-06T13:55:03.174Z,15.23
2019-04-06T13:58:09.588Z,13.60
2019-04-06T14:01:32.034Z,13.60
2019-04-06T14:04:39.369Z,13.23
2019-04-06T14:07:46.496Z,15.03
2019-04-06T14:10:53.343Z,15.23
2019-04-06T14:14:02.524Z,13.83
2019-04-06T14:17:27.211Z,15.13
2019-04-06T14:20:39.227Z,13.70
2019-04-06T14:23:54.622Z,14.27
2019-04-06T14:27:03.187Z,14.20
2019-04-06T14:30:26.079Z,15.80
2019-04-06T14:33:32.976Z,12.53
2019-04-06T14:36:40.154Z,14.27
2019-04-06T14:39:49.557Z,14.67
2019-04-06T14:43:13.571Z,13.47
2019-04-06T14:46:35.970Z,12.90
2019-04-06T14:49:51.303Z,15.20
2019-04-06T14:53:13.550Z,13.80
2019-04-06T14:56:32.290Z,12.53
2019-04-06T14:59:38.917Z,13.27
2019-04-06T15:02:50.844Z,12.27
2019-04-06T15:05:58.251Z,12.57
2019-04-06T15:09:22.650Z,13.07
2019-04-06T15:12:32.413Z,18.93
2019-04-06T15:15:50.271Z,14.17
2019-04-06T15:19:06.856Z,12.50
2019-04-06T15:22:18.693Z,14.37
2019-04-06T15:25:30.646Z,15.23
2019-04-06T15:28:49.009Z,13.47
2019-04-06T15:31:57.857Z,12.37
2019-04-06T15:35:02.862Z,11.93
2019-04-06T15:38:15.551Z,12.93
2019-04-06T15:41:19.789Z,12.73
2019-04-06T15:44:31.791Z,13.17
2019-04-06T15:47:43.787Z,11.20
2019-04-06T15:50:52.782Z,12.97
2019-04-06T15:54:13.864Z,12.87
2019-04-06T15:57:19.957Z,12.80
2019-04-06T16:00:28.554Z,13.03
2019-04-06T16:03:38.226Z,11.73
2019-04-06T16:06:46.879Z,12.63
2019-04-06T16:09:55.645Z,11.57
2019-04-06T16:13:19.767Z,11.60
2019-04-06T16:16:26.187Z,13.77
2019-04-06T16:19:32.314Z,12.57
2019-04-06T16:22:37.177Z,12.37
2019-04-06T16:25:49.794Z,11.50
2019-04-06T16:28:58.700Z,11.80
2019-04-06T16:32:32.427Z,12.43
2019-04-06T16:35:31.442Z,11.50
2019-04-06T16:38:40.257Z,11.60
2019-04-06T16:41:52.776Z,10.90
2019-04-06T16:44:58.913Z,11.00
2019-04-06T16:48:21.099Z,11.50
2019-04-06T16:51:38.751Z,12.17
2019-04-06T16:55:01.163Z,14.80
2019-04-06T16:58:22.761Z,11.53
2019-04-06T17:01:34.519Z,12.90
2019-04-06T17:04:49.639Z,11.73
2019-04-06T17:08:12.805Z,12.90
2019-04-06T17:11:35.981Z,11.53
2019-04-06T17:14:58.480Z,11.60
2019-04-06T17:18:07.465Z,10.47
2019-04-06T17:21:29.133Z,9.80
2019-04-06T17:24:41.404Z,10.47
2019-04-06T17:28:03.558Z,11.53
2019-04-06T17:31:21.769Z,16.33
2019-04-06T17:34:29.168Z,13.07
2019-04-06T17:37:38.132Z,9.97
2019-04-06T17:40:50.217Z,9.97
2019-04-06T17:44:05.922Z,9.37
2019-04-06T17:47:27.879Z,9.47
2019-04-06T17:50:42.938Z,11.70
2019-04-06T17:53:47.227Z,9.13
2019-04-06T17:56:59.275Z,9.80
2019-04-06T18:00:26.303Z,9.60
2019-04-06T18:03:48.795Z,9.77
2019-04-06T18:07:08.155Z,9.60
2019-04-06T18:10:17.359Z,10.47
2019-04-06T18:13:26.432Z,11.30
2019-04-06T18:16:32.750Z,9.80
2019-04-06T18:19:37.467Z,13.13
2019-04-06T18:22:41.967Z,11.97
2019-04-06T18:25:46.368Z,12.90
2019-04-06T18:28:50.914Z,10.57
2019-04-06T18:31:59.641Z,12.87
2019-04-06T18:35:04.948Z,13.30
2019-04-06T18:38:09.541Z,13.03
2019-04-06T18:41:13.978Z,14.07
2019-04-06T18:44:18.425Z,13.57
2019-04-06T18:47:23.159Z,13.77
2019-04-06T18:50:34.173Z,12.87
2019-04-06T18:53:34.323Z,13.63
2019-04-06T18:56:39.113Z,13.97
2019-04-06T18:59:43.582Z,14.17
2019-04-06T19:02:48.033Z,14.13
2019-04-06T19:05:52.470Z,15.77
2019-04-06T19:08:57.255Z,14.07
2019-04-06T19:12:02.016Z,13.73
2019-04-06T19:15:09.056Z,13.87
2019-04-06T19:18:13.590Z,13.10
2019-04-06T19:21:18.048Z,13.30
2019-04-06T19:24:22.487Z,14.47
2019-04-06T19:27:27.354Z,14.00
2019-04-06T19:30:31.880Z,15.07
2019-04-06T19:33:36.448Z,16.13
2019-04-06T19:36:40.955Z,15.30
2019-04-06T19:39:45.403Z,17.33
2019-04-06T19:42:49.973Z,19.53
2019-04-06T19:45:54.471Z,16.63
2019-04-06T19:48:58.926Z,18.93
2019-04-06T19:52:03.957Z,17.87
2019-04-06T19:55:09.100Z,17.00
2019-04-06T19:58:13.714Z,20.30
2019-04-06T20:01:18.272Z,18.83
2019-04-06T20:04:22.768Z,18.37
2019-04-06T20:07:27.525Z,18.90
2019-04-06T20:10:32.261Z,19.73
2019-04-06T20:13:37.107Z,22.13
2019-04-06T20:16:41.946Z,21.00
2019-04-06T20:19:46.464Z,25.47
2019-04-06T20:22:50.905Z,24.10
2019-04-06T20:25:55.625Z,23.13
2019-04-06T20:29:00.064Z,19.40
2019-04-06T20:32:04.502Z,21.20
2019-04-06T20:35:09.499Z,22.20
2019-04-06T20:38:14.042Z,24.87
2019-04-06T20:41:19.001Z,21.70
2019-04-06T20:44:23.540Z,21.80
2019-04-06T20:47:27.964Z,20.17
2019-04-06T20:50:33.122Z,21.47
2019-04-06T20:53:38.086Z,23.77
2019-04-06T20:56:53.302Z,26.43
2019-04-06T20:59:49.003Z,27.57
2019-04-06T21:02:53.738Z,23.97
2019-04-06T21:05:58.554Z,25.23
2019-04-06T21:09:04.521Z,26.93
2019-04-06T21:12:08.951Z,26.17
2019-04-06T21:15:18.922Z,25.90
2019-04-06T21:18:19.705Z,22.20
2019-04-06T21:21:24.800Z,24.47
2019-04-06T21:24:29.704Z,25.80
2019-04-06T21:27:34.185Z,21.83
2019-04-06T21:30:39.049Z,23.30
2019-04-06T21:33:45.857Z,23.97
2019-04-06T21:36:51.051Z,20.07
2019-04-06T21:39:56.100Z,21.73
2019-04-06T21:43:01.013Z,27.40
2019-04-06T21:46:06.702Z,23.00
2019-04-06T21:49:11.308Z,21.07
2019-04-06T21:52:15.804Z,21.20
2019-04-06T21:55:20.709Z,20.73
2019-04-06T21:58:25.573Z,21.73
2019-04-06T22:01:31.029Z,23.77
2019-04-06T22:04:36.265Z,21.30
2019-04-06T22:07:48.678Z,22.17
2019-04-06T22:10:47.456Z,21.53
2019-04-06T22:13:52.197Z,21.57
2019-04-06T22:16:57.239Z,24.67
2019-04-06T22:20:01.962Z,24.57
2019-04-06T22:23:06.861Z,24.33
2019-04-06T22:26:11.589Z,26.90
2019-04-06T22:29:16.321Z,30.53
2019-04-06T22:32:20.915Z,29.13
2019-04-06T22:35:25.747Z,27.57
2019-04-06T22:38:30.792Z,25.73
2019-04-06T22:41:35.458Z,27.43
2019-04-06T22:44:40.283Z,27.00
2019-04-06T22:47:45.187Z,25.67
2019-04-06T22:50:50.045Z,22.47
2019-04-06T22:53:54.585Z,26.90
2019-04-06T22:56:59.962Z,23.87
2019-04-06T23:00:08.039Z,25.47
2019-04-06T23:03:30.785Z,22.93
2019-04-06T23:06:37.256Z,26.63
2019-04-06T23:09:41.759Z,26.83
2019-04-06T23:12:46.206Z,24.83
2019-04-06T23:15:50.888Z,22.87
2019-04-06T23:18:56.072Z,24.50
2019-04-06T23:22:01.109Z,24.27
2019-04-06T23:25:06.372Z,26.03
2019-04-06T23:28:10.799Z,28.80
2019-04-06T23:31:15.513Z,25.80
2019-04-06T23:34:20.338Z,24.10
2019-04-06T23:37:25.078Z,26.93
2019-04-06T23:40:29.531Z,24.27
2019-04-06T23:43:34.817Z,25.47
2019-04-06T23:46:39.522Z,27.17
2019-04-06T23:49:44.060Z,23.03
2019-04-06T23:52:48.502Z,27.07
2019-04-06T23:55:52.945Z,28.60
2019-04-06T23:58:57.378Z,22.43
